Time;durP1;ratioP1;P1;durP2;ratioP2;P2;SDS_P1;SDS_P2;PMS_P1;PMS_P2;Temp;Humidity;BMP_temperature;BMP_pressure;BME280_temperature;BME280_humidity;BME280_pressure;Samples;Min_cycle;Max_cycle;Signal;HPM_P1;HPM_P2
2021/12/19 00:01:11;;;;;;;25.55;16.80;;;;;;;6.55;61.22;99865.38;4329678;33;34074;-81
2021/12/19 00:09:03;;;;;;;23.70;15.55;;;;;;;6.30;62.09;99870.34;4330630;33;33743;-80
2021/12/19 00:11:32;;;;;;;26.52;16.17;;;;;;;7.02;59.45;99860.31;4330284;33;34635;-82
2021/12/19 00:14:00;;;;;;;24.27;15.90;;;;;;;6.41;61.44;99845.03;4330627;33;34921;-81
2021/12/19 00:16:29;;;;;;;24.27;14.85;;;;;;;6.09;62.52;99860.03;4316963;33;33880;-81
2021/12/19 00:18:57;;;;;;;27.77;15.75;;;;;;;6.49;61.25;99843.63;4330033;33;33723;-77
2021/12/19 00:21:28;;;;;;;26.48;16.25;;;;;;;6.41;61.34;99845.03;4316602;33;33963;-78
2021/12/19 00:23:56;;;;;;;24.50;16.55;;;;;;;6.07;62.33;99848.81;4330410;33;33728;-80
2021/12/19 00:26:24;;;;;;;24.35;15.63;;;;;;;6.58;60.80;99837.12;4316725;33;34355;-78
2021/12/19 00:28:52;;;;;;;24.63;15.25;;;;;;;6.98;59.91;99850.69;4329412;33;34274;-79
2021/12/19 00:31:20;;;;;;;26.67;18.02;;;;;;;7.10;59.44;99840.84;4329472;33;33918;-76
2021/12/19 00:33:47;;;;;;;26.00;15.93;;;;;;;6.96;60.05;99836.84;4330248;33;34194;-80
2021/12/19 00:36:14;;;;;;;25.55;16.42;;;;;;;7.00;59.67;99829.28;4330288;33;33585;-79
2021/12/19 00:38:42;;;;;;;27.27;16.60;;;;;;;6.22;62.46;99830.53;4329796;33;34785;-79
2021/12/19 00:41:10;;;;;;;27.35;17.17;;;;;;;6.36;62.18;99821.66;4330086;33;33485;-80
2021/12/19 00:43:53;;;;;;;29.73;17.40;;;;;;;6.78;60.83;99817.31;4328940;33;34141;-80
2021/12/19 00:46:24;;;;;;;29.52;17.52;;;;;;;7.15;60.07;99816.09;4330418;33;34317;-79
2021/12/19 00:48:54;;;;;;;32.65;19.45;;;;;;;6.28;62.66;99817.87;4329700;33;33932;-79
2021/12/19 00:51:24;;;;;;;28.48;18.83;;;;;;;6.13;63.66;99831.03;4316669;33;33931;-79
2021/12/19 00:53:53;;;;;;;29.90;17.80;;;;;;;6.38;62.98;99817.44;4325445;33;33753;-79
2021/12/19 00:56:22;;;;;;;27.90;17.40;;;;;;;7.15;60.48;99813.50;4316847;33;34152;-80
2021/12/19 00:58:50;;;;;;;27.02;16.73;;;;;;;6.67;61.87;99808.31;4316896;33;33762;-76
2021/12/19 01:01:18;;;;;;;29.02;18.75;;;;;;;7.03;60.84;99807.91;4326671;33;89417;-79
2021/12/19 01:03:47;;;;;;;28.77;18.08;;;;;;;6.79;61.94;99820.78;4316775;33;32702;-78
2021/12/19 01:06:17;;;;;;;28.90;17.37;;;;;;;6.41;63.10;99812.44;4317266;33;33824;-77
2021/12/19 01:08:45;;;;;;;25.12;16.15;;;;;;;6.93;61.86;99826.44;4329018;33;34561;-78
2021/12/19 01:11:14;;;;;;;26.92;17.00;;;;;;;7.08;61.21;99821.84;4316782;33;33895;-78
2021/12/19 01:13:42;;;;;;;26.62;17.25;;;;;;;7.09;60.51;99812.44;4316811;33;34765;-82
2021/12/19 01:16:09;;;;;;;22.87;14.98;;;;;;;8.03;57.96;99794.19;4329753;33;34905;-78
2021/12/19 01:18:37;;;;;;;27.52;16.52;;;;;;;7.18;60.76;99807.59;4316301;33;33208;-77
2021/12/19 01:21:05;;;;;;;27.37;16.75;;;;;;;6.33;63.47;99790.66;4329722;33;34698;-79
2021/12/19 01:23:33;;;;;;;28.48;17.83;;;;;;;6.78;62.06;99788.97;4329602;33;33822;-77
2021/12/19 01:26:00;;;;;;;27.13;17.80;;;;;;;6.90;62.05;99783.41;4316666;33;34990;-78
2021/12/19 01:28:28;;;;;;;27.60;15.95;;;;;;;6.60;62.81;99780.53;4328943;33;33377;-80
2021/12/19 01:30:55;;;;;;;26.12;15.90;;;;;;;6.61;62.51;99766.81;4329454;33;33789;-80
2021/12/19 01:33:23;;;;;;;25.00;16.27;;;;;;;6.50;63.60;99783.56;4329726;33;34936;-79
2021/12/19 01:35:53;;;;;;;26.75;16.00;;;;;;;7.33;61.07;99761.72;4329226;33;34541;-79
2021/12/19 01:38:21;;;;;;;28.35;16.60;;;;;;;7.04;62.29;99769.28;4328894;33;33637;-79
2021/12/19 01:40:48;;;;;;;28.05;16.33;;;;;;;7.09;62.10;99773.75;4329489;33;34092;-78
2021/12/19 01:43:20;;;;;;;25.30;15.23;;;;;;;7.72;60.20;99771.66;4328924;33;33015;-79
2021/12/19 01:45:47;;;;;;;25.48;14.77;;;;;;;7.51;60.54;99757.22;4315873;33;33499;-79
2021/12/19 01:48:15;;;;;;;24.27;14.52;;;;;;;8.49;57.82;99754.38;4329146;33;33718;-79
2021/12/19 01:50:42;;;;;;;25.02;15.05;;;;;;;8.21;58.91;99762.94;4329106;33;33803;-80
2021/12/19 01:53:12;;;;;;;21.52;13.75;;;;;;;7.77;60.24;99747.78;4329439;33;34277;-80
2021/12/19 01:55:41;;;;;;;28.00;15.30;;;;;;;8.34;58.08;99752.16;4329774;33;33803;-79
2021/12/19 01:58:09;;;;;;;23.02;14.75;;;;;;;7.32;61.51;99739.34;4331285;33;33942;-78
2021/12/19 02:00:43;;;;;;;25.60;13.32;;;;;;;7.79;60.47;99733.19;4331128;33;33594;-79
2021/12/19 02:03:11;;;;;;;22.52;14.27;;;;;;;7.15;61.91;99754.22;4331555;33;33902;-79
2021/12/19 02:05:39;;;;;;;23.25;14.43;;;;;;;7.31;62.18;99712.69;4330639;33;35153;-78
2021/12/19 02:08:08;;;;;;;21.85;14.00;;;;;;;7.32;62.10;99708.41;4331313;33;33890;-80
2021/12/19 02:10:37;;;;;;;19.83;13.68;;;;;;;6.78;63.87;99710.75;4330532;33;34588;-79
2021/12/19 02:13:05;;;;;;;20.85;13.45;;;;;;;7.16;62.71;99698.34;4331593;33;34515;-77
2021/12/19 02:15:34;;;;;;;21.75;14.45;;;;;;;7.29;62.82;99704.00;4330971;33;34128;-79
2021/12/19 02:18:07;;;;;;;24.35;14.27;;;;;;;7.31;62.59;99689.47;4316593;33;34443;-79
2021/12/19 02:20:40;;;;;;;21.55;13.13;;;;;;;6.85;63.98;99688.66;4321529;33;33482;-80
2021/12/19 02:23:09;;;;;;;22.20;13.23;;;;;;;6.91;64.04;99688.91;4330957;33;33810;-81
2021/12/19 02:25:37;;;;;;;23.20;14.70;;;;;;;7.26;63.03;99684.97;4330905;33;33425;-80
2021/12/19 02:28:05;;;;;;;22.55;14.07;;;;;;;7.27;62.68;99692.78;4330760;33;33462;-79
2021/12/19 02:30:36;;;;;;;21.87;13.00;;;;;;;7.93;61.10;99679.44;4317641;33;34433;-78
2021/12/19 02:33:09;;;;;;;24.15;14.77;;;;;;;8.15;60.46;99675.81;4330990;33;34472;-80
2021/12/19 02:35:37;;;;;;;26.45;15.60;;;;;;;7.69;61.40;99681.22;4317564;33;33848;-79
2021/12/19 02:48:10;;;;;;;22.10;14.25;;;;;;;7.77;61.06;99670.34;4330636;33;34580;-81
2021/12/19 02:49:05;;;;;;;20.00;12.82;;;;;;;7.45;62.43;99689.03;4327286;33;33759;-79
2021/12/19 02:51:34;;;;;;;20.80;13.40;;;;;;;7.95;60.65;99669.16;4330491;33;34029;-79
2021/12/19 02:54:03;;;;;;;21.50;13.15;;;;;;;7.13;62.91;99669.91;4330737;33;33967;-80
2021/12/19 02:56:31;;;;;;;19.77;12.90;;;;;;;7.15;63.35;99658.81;4331153;33;34683;-78
2021/12/19 02:58:58;;;;;;;20.73;13.27;;;;;;;7.75;61.67;99638.44;4318012;33;33585;-80
2021/12/19 03:01:27;;;;;;;22.27;14.30;;;;;;;7.54;61.79;99643.81;4330470;33;33820;-82
2021/12/19 03:03:54;;;;;;;20.10;13.15;;;;;;;7.77;60.97;99639.38;4317435;33;33578;-80
2021/12/19 03:06:23;;;;;;;23.55;14.60;;;;;;;7.67;61.10;99619.25;4330910;33;34840;-80
2021/12/19 03:08:51;;;;;;;22.33;14.27;;;;;;;7.55;61.68;99640.38;4331034;33;34416;-82
2021/12/19 03:19:35;;;;;;;21.95;13.50;;;;;;;7.84;61.07;99616.31;4319000;33;33579;-80
2021/12/19 03:22:03;;;;;;;21.02;12.70;;;;;;;7.94;60.29;99603.72;4316976;33;34628;-82
2021/12/19 03:24:30;;;;;;;18.55;12.18;;;;;;;8.19;59.50;99604.47;4330841;33;34244;-80
2021/12/19 03:26:57;;;;;;;19.87;12.68;;;;;;;7.82;60.55;99605.06;4330819;33;33758;-79
2021/12/19 03:29:25;;;;;;;19.60;12.65;;;;;;;7.59;60.97;99588.87;4329837;33;33903;-81
2021/12/19 03:31:52;;;;;;;18.40;11.73;;;;;;;7.91;60.67;99603.63;4330110;33;33753;-80
2021/12/19 03:34:20;;;;;;;19.98;12.70;;;;;;;8.08;59.25;99591.25;4331022;33;34973;-83
2021/12/19 03:36:48;;;;;;;21.77;13.18;;;;;;;7.87;60.41;99596.63;4317397;33;34065;-79
2021/12/19 03:39:25;;;;;;;20.75;12.18;;;;;;;8.36;58.83;99587.72;4331081;33;33482;-79
2021/12/19 03:41:55;;;;;;;19.37;12.30;;;;;;;8.08;59.59;99570.59;4330734;33;33991;-80
2021/12/19 03:44:22;;;;;;;17.35;12.32;;;;;;;8.32;58.88;99570.41;4330474;33;35048;-79
2021/12/19 03:46:51;;;;;;;19.90;11.75;;;;;;;8.29;58.69;99568.59;4330503;33;33426;-83
2021/12/19 03:49:19;;;;;;;20.00;12.30;;;;;;;8.14;58.66;99565.56;4317307;33;33933;-79
2021/12/19 03:51:48;;;;;;;19.30;13.05;;;;;;;7.89;59.88;99557.97;4330628;33;34764;-81
2021/12/19 03:54:15;;;;;;;19.83;11.90;;;;;;;7.40;61.33;99556.47;4317483;33;34275;-79
2021/12/19 03:56:43;;;;;;;20.12;12.57;;;;;;;7.63;60.50;99563.22;4330252;33;34184;-80
2021/12/19 03:59:11;;;;;;;19.45;12.90;;;;;;;7.15;62.41;99552.22;4315804;33;33539;-79
2021/12/19 04:01:45;;;;;;;18.20;12.68;;;;;;;7.90;59.74;99562.28;4329620;33;33534;-80
2021/12/19 04:04:13;;;;;;;20.33;13.53;;;;;;;8.00;59.56;99564.31;4330796;33;34062;-80
2021/12/19 04:06:41;;;;;;;19.60;12.37;;;;;;;7.57;60.53;99544.94;4330646;33;34043;-79
2021/12/19 04:09:08;;;;;;;18.25;11.68;;;;;;;7.94;59.12;99575.34;4330581;33;33329;-80
2021/12/19 04:11:36;;;;;;;20.40;12.73;;;;;;;7.92;59.49;99555.50;4329970;33;33810;-80
2021/12/19 04:14:05;;;;;;;21.25;14.50;;;;;;;7.89;59.62;99553.69;4329822;33;33910;-80
2021/12/19 04:16:32;;;;;;;21.27;13.10;;;;;;;7.67;60.16;99557.31;4330254;33;34292;-81
2021/12/19 04:19:00;;;;;;;21.23;14.45;;;;;;;7.29;60.98;99580.22;4329559;33;33840;-80
2021/12/19 04:21:27;;;;;;;21.95;13.85;;;;;;;7.09;61.66;99570.97;4329985;33;33406;-79
2021/12/19 04:23:55;;;;;;;23.58;15.15;;;;;;;7.61;60.02;99554.53;4330666;33;33894;-79
2021/12/19 04:26:23;;;;;;;21.20;14.02;;;;;;;7.28;60.75;99568.16;4329652;33;34927;-80
2021/12/19 04:28:50;;;;;;;22.65;14.13;;;;;;;7.21;61.45;99567.91;4330340;33;33375;-80
2021/12/19 04:31:18;;;;;;;24.00;14.93;;;;;;;7.49;60.08;99551.59;4330319;33;34229;-78
2021/12/19 04:33:45;;;;;;;19.90;13.95;;;;;;;7.67;59.67;99554.72;4329501;33;34293;-79
2021/12/19 04:36:21;;;;;;;21.25;14.48;;;;;;;7.89;58.68;99532.16;4330300;33;33709;-79
2021/12/19 04:55:22;;;;;;;20.10;13.70;;;;;;;6.98;61.07;99497.53;4321698;33;34041;-79
2021/12/19 04:58:18;;;;;;;18.17;12.93;;;;;;;6.63;61.91;99502.41;4329340;33;33767;-80
2021/12/19 05:00:41;;;;;;;18.83;13.05;;;;;;;7.04;60.82;99487.41;4328745;33;33750;-79
2021/12/19 05:03:42;;;;;;;22.40;13.55;;;;;;;7.01;60.85;99492.50;4329712;33;33611;-83
2021/12/19 05:06:12;;;;;;;19.77;13.20;;;;;;;6.65;61.83;99487.88;4329499;33;33819;-80
2021/12/19 05:14:19;;;;;;;17.17;11.98;;;;;;;7.17;60.69;99461.22;4329616;33;34107;-80
2021/12/19 05:16:48;;;;;;;20.88;13.77;;;;;;;6.89;61.23;99458.56;4329597;33;34787;-79
2021/12/19 05:19:24;;;;;;;19.27;12.75;;;;;;;7.12;60.80;99478.22;4329015;33;34162;-80
2021/12/19 05:21:55;;;;;;;;;;;;;;;6.74;61.66;99462.44;4316912;33;33737;-80
2021/12/19 05:27:07;;;;;;;17.83;11.85;;;;;;;7.26;60.79;99461.47;4308050;33;34305;-80
2021/12/19 05:29:35;;;;;;;16.42;11.98;;;;;;;7.24;60.46;99449.38;4328419;33;33814;-79
2021/12/19 05:32:05;;;;;;;18.67;12.65;;;;;;;7.19;60.76;99441.47;4318343;33;34393;-79
2021/12/19 05:34:33;;;;;;;18.70;11.30;;;;;;;6.52;62.92;99436.78;4331202;33;33976;-80
2021/12/19 05:45:20;;;;;;;15.55;10.48;;;;;;;6.75;62.66;99427.22;4331423;33;34391;-82
2021/12/19 05:47:49;;;;;;;15.10;11.52;;;;;;;6.89;61.81;99423.34;4331379;33;35435;-84
2021/12/19 05:50:21;;;;;;;16.23;11.07;;;;;;;6.70;62.80;99437.34;4317852;33;34186;-79
2021/12/19 05:52:50;;;;;;;15.90;11.25;;;;;;;6.83;63.00;99438.66;4317123;33;34012;-82
2021/12/19 05:55:19;;;;;;;15.57;11.12;;;;;;;6.36;64.27;99442.22;4331669;33;33931;-80
2021/12/19 05:57:47;;;;;;;15.73;10.98;;;;;;;6.76;63.35;99442.72;4331289;33;34029;-77
2021/12/19 06:00:17;;;;;;;12.98;9.27;;;;;;;7.35;61.83;99457.41;4330996;33;34261;-82
2021/12/19 06:02:45;;;;;;;14.10;10.07;;;;;;;6.97;62.60;99439.06;4330260;33;33741;-81
2021/12/19 06:05:13;;;;;;;13.05;9.48;;;;;;;6.88;63.07;99452.53;4331796;33;33978;-79
2021/12/19 06:07:41;;;;;;;13.00;9.23;;;;;;;7.42;61.70;99454.19;4331699;33;34883;-82
2021/12/19 06:10:09;;;;;;;12.85;9.10;;;;;;;7.79;60.14;99446.69;4331259;33;34015;-81
2021/12/19 06:12:37;;;;;;;13.43;9.23;;;;;;;7.74;60.71;99453.44;4330855;33;33578;-80
2021/12/19 06:15:08;;;;;;;13.80;9.50;;;;;;;7.27;62.09;99470.06;4331485;33;33788;-80
2021/12/19 06:17:38;;;;;;;13.38;9.40;;;;;;;7.60;61.16;99464.19;4306082;33;34205;-79
2021/12/19 06:20:07;;;;;;;14.30;9.30;;;;;;;8.32;58.72;99453.28;4330754;33;34971;-79
2021/12/19 06:22:34;;;;;;;13.38;9.18;;;;;;;7.90;59.52;99435.81;4317408;33;34617;-81
2021/12/19 06:25:03;;;;;;;12.05;8.50;;;;;;;7.51;60.79;99447.63;4331376;33;33768;-81
2021/12/19 06:27:30;;;;;;;13.07;9.70;;;;;;;7.67;60.15;99456.69;4330662;33;34953;-79
2021/12/19 06:29:58;;;;;;;14.98;9.18;;;;;;;7.74;60.27;99442.25;4330543;33;34227;-80
2021/12/19 06:32:25;;;;;;;15.77;9.70;;;;;;;8.18;58.60;99433.16;4330749;33;33655;-80
2021/12/19 06:34:53;;;;;;;16.58;10.88;;;;;;;8.50;57.87;99451.22;4330646;33;34346;-80
2021/12/19 06:37:20;;;;;;;14.32;9.40;;;;;;;9.29;55.35;99435.88;4331063;33;33421;-80
2021/12/19 06:39:48;;;;;;;14.50;9.75;;;;;;;9.61;54.44;99431.34;4330984;33;34680;-79
2021/12/19 06:42:15;;;;;;;16.70;10.70;;;;;;;9.23;55.27;99424.50;4330199;33;32825;-79
2021/12/19 06:44:43;;;;;;;13.93;9.75;;;;;;;8.49;57.54;99418.47;4330494;33;34655;-80
2021/12/19 06:47:11;;;;;;;16.30;10.10;;;;;;;8.95;55.80;99417.00;4331444;33;34144;-80
2021/12/19 06:49:38;;;;;;;14.50;10.02;;;;;;;8.49;57.57;99414.16;4330693;33;34105;-79
2021/12/19 06:52:06;;;;;;;15.93;10.43;;;;;;;8.58;57.45;99423.84;4331266;33;33902;-83
2021/12/19 06:54:33;;;;;;;15.10;10.50;;;;;;;8.02;58.88;99425.81;4331028;33;34445;-80
2021/12/19 06:57:01;;;;;;;14.85;9.50;;;;;;;8.84;56.73;99421.91;4329738;33;35031;-80
2021/12/19 06:59:28;;;;;;;14.38;10.10;;;;;;;8.22;58.30;99421.16;4330833;33;33830;-79
2021/12/19 07:01:56;;;;;;;16.55;9.90;;;;;;;8.33;57.97;99416.28;4308765;33;34573;-80
2021/12/19 07:04:23;;;;;;;13.55;9.20;;;;;;;8.22;57.98;99410.84;4330855;33;34690;-80
2021/12/19 07:06:51;;;;;;;14.98;9.43;;;;;;;10.20;52.67;99391.09;4317805;33;34058;-80
2021/12/19 07:09:19;;;;;;;14.18;9.57;;;;;;;7.99;58.19;99394.72;4330560;33;34446;-80
2021/12/19 07:11:46;;;;;;;15.15;10.63;;;;;;;8.97;56.11;99399.78;4330502;33;34540;-79
2021/12/19 07:14:13;;;;;;;16.08;10.13;;;;;;;8.93;56.17;99405.72;4330316;33;33826;-80
2021/12/19 07:16:41;;;;;;;13.77;9.98;;;;;;;8.75;56.29;99388.97;4331307;33;34317;-80
2021/12/19 07:19:08;;;;;;;16.23;10.32;;;;;;;8.68;56.74;99400.00;4329333;33;34015;-79
2021/12/19 07:21:36;;;;;;;13.90;9.70;;;;;;;9.16;55.33;99380.38;4330411;33;33343;-81
2021/12/19 07:24:04;;;;;;;13.88;9.93;;;;;;;8.98;55.79;99373.97;4330583;33;34245;-82
2021/12/19 07:26:31;;;;;;;14.25;9.77;;;;;;;8.24;57.57;99376.47;4330388;33;33838;-76
2021/12/19 07:29:00;;;;;;;15.80;9.73;;;;;;;7.86;59.14;99378.06;4330858;33;33594;-79
2021/12/19 07:31:30;;;;;;;15.32;10.43;;;;;;;8.07;58.54;99385.50;4330795;33;33379;-77
2021/12/19 07:33:58;;;;;;;16.17;10.48;;;;;;;8.38;57.94;99384.59;4312549;33;33969;-80
2021/12/19 07:36:30;;;;;;;13.65;9.68;;;;;;;8.73;56.49;99384.59;4331081;33;35126;-83
2021/12/19 07:39:06;;;;;;;15.00;10.05;;;;;;;8.15;58.67;99394.31;4330448;33;35152;-80
2021/12/19 07:41:33;;;;;;;;;;;;;;;7.93;59.85;99387.72;4331523;33;34994;-83
2021/12/19 07:44:01;;;;;;;14.35;9.43;;;;;;;8.11;58.49;99387.34;4330450;33;33986;-80
2021/12/19 07:46:32;;;;;;;14.63;10.27;;;;;;;9.24;55.94;99384.91;4330203;33;34286;-79
2021/12/19 07:48:59;;;;;;;13.95;9.65;;;;;;;8.67;57.18;99393.06;4329909;33;34298;-78
2021/12/19 07:51:27;;;;;;;14.70;9.45;;;;;;;8.67;57.38;99387.88;4330816;33;33504;-81
2021/12/19 07:53:54;;;;;;;14.75;9.45;;;;;;;8.98;56.36;99380.88;4329372;33;33971;-81
2021/12/19 07:56:22;;;;;;;16.50;9.88;;;;;;;9.15;55.69;99373.47;4330246;33;33948;-80
2021/12/19 07:58:50;;;;;;;14.00;9.77;;;;;;;9.29;54.84;99363.41;4330387;33;34099;-80
2021/12/19 08:01:18;;;;;;;15.23;9.82;;;;;;;9.33;55.09;99354.88;4330363;33;33617;-77
2021/12/19 08:03:45;;;;;;;14.20;9.75;;;;;;;8.28;58.14;99377.41;4329293;33;33482;-78
2021/12/19 08:06:13;;;;;;;14.98;9.32;;;;;;;8.70;56.98;99362.13;4330622;33;34164;-83
2021/12/19 08:08:46;;;;;;;13.62;9.07;;;;;;;8.04;59.00;99357.03;4330746;33;34988;-77
2021/12/19 08:14:00;;;;;;;13.43;9.48;;;;;;;8.38;58.40;99347.56;4329864;33;33935;-78
2021/12/19 08:16:28;;;;;;;12.63;8.60;;;;;;;9.09;56.47;99343.19;4330474;33;33886;-79
2021/12/19 08:18:57;;;;;;;13.40;8.40;;;;;;;7.45;61.15;99338.22;4330180;33;35125;-77
2021/12/19 08:21:24;;;;;;;14.48;8.63;;;;;;;9.14;56.06;99325.16;4330336;33;33762;-77
2021/12/19 08:23:52;;;;;;;12.50;8.98;;;;;;;8.77;57.34;99332.97;4330305;33;33959;-77
2021/12/19 08:26:20;;;;;;;13.82;8.52;;;;;;;9.61;54.71;99328.69;4330130;33;35052;-79
2021/12/19 08:28:47;;;;;;;12.57;7.95;;;;;;;8.05;59.48;99335.53;4329901;33;33932;-78
2021/12/19 08:31:15;;;;;;;17.23;11.32;;;;;;;9.05;56.58;99323.25;4329433;33;33472;-77
2021/12/19 08:33:44;;;;;;;11.32;7.45;;;;;;;9.06;56.57;99322.41;4329625;33;33748;-78
2021/12/19 08:36:11;;;;;;;16.85;9.75;;;;;;;9.64;55.24;99313.22;4330245;33;34315;-79
2021/12/19 08:38:39;;;;;;;24.77;17.08;;;;;;;9.27;55.95;99312.50;4330388;33;33731;-77
2021/12/19 08:41:06;;;;;;;10.50;7.32;;;;;;;10.40;53.62;99310.25;4329459;33;33875;-78
2021/12/19 08:43:34;;;;;;;12.50;7.05;;;;;;;10.47;53.19;99299.13;4316744;33;33669;-78
2021/12/19 08:46:01;;;;;;;17.10;10.57;;;;;;;9.43;55.35;99305.03;4328964;33;34337;-78
2021/12/19 08:48:29;;;;;;;410.75;197.13;;;;;;;9.69;55.01;99309.00;4330039;33;34093;-77
2021/12/19 08:50:57;;;;;;;22.45;12.63;;;;;;;8.92;57.29;99292.81;4329181;33;33820;-77
2021/12/19 08:53:24;;;;;;;311.48;163.05;;;;;;;9.10;57.29;99288.03;4329566;33;33903;-76
2021/12/19 08:55:52;;;;;;;12.95;7.53;;;;;;;8.85;57.93;99288.34;4329486;33;33935;-78
2021/12/19 08:58:19;;;;;;;27.55;22.52;;;;;;;8.89;57.84;99277.22;4330305;33;33718;-78
2021/12/19 09:00:47;;;;;;;11.90;6.82;;;;;;;8.64;58.76;99283.59;4329737;33;33773;-77
2021/12/19 09:03:15;;;;;;;23.75;20.55;;;;;;;8.53;58.93;99273.00;4308717;33;34197;-77
2021/12/19 09:05:43;;;;;;;11.02;7.22;;;;;;;8.22;59.95;99273.94;4331496;33;34164;-76
2021/12/19 09:08:10;;;;;;;11.75;7.18;;;;;;;8.02;60.44;99271.75;4318373;33;34212;-75
2021/12/19 09:10:38;;;;;;;12.27;7.47;;;;;;;8.50;59.01;99252.25;4332297;33;33348;-76
2021/12/19 09:13:05;;;;;;;16.67;11.02;;;;;;;7.70;61.42;99258.06;4332028;33;34451;-76
2021/12/19 09:15:36;;;;;;;12.75;8.52;;;;;;;7.48;62.03;99253.19;4332063;33;34230;-77
2021/12/19 09:18:03;;;;;;;12.18;8.00;;;;;;;7.57;61.74;99256.84;4331927;33;34878;-74
2021/12/19 09:20:31;;;;;;;13.40;6.87;;;;;;;8.57;59.24;99254.16;4318671;33;33619;-77
2021/12/19 09:22:58;;;;;;;12.30;7.60;;;;;;;8.16;59.94;99228.22;4331862;33;34738;-75
2021/12/19 09:25:26;;;;;;;13.35;8.00;;;;;;;7.91;60.69;99229.31;4318539;33;34128;-78
2021/12/19 09:27:53;;;;;;;12.45;7.03;;;;;;;7.75;61.33;99225.50;4331995;33;35066;-76
2021/12/19 09:30:23;;;;;;;14.70;7.82;;;;;;;7.42;62.39;99245.28;4332048;33;34164;-77
2021/12/19 09:32:53;;;;;;;12.70;8.13;;;;;;;7.97;60.27;99210.53;4320380;33;34816;-78
2021/12/19 09:35:21;;;;;;;12.05;7.12;;;;;;;7.91;60.65;99220.72;4307953;33;35090;-79
2021/12/19 09:37:48;;;;;;;12.43;6.97;;;;;;;7.96;60.33;99201.06;4331784;33;35155;-78
2021/12/19 09:40:21;;;;;;;11.93;7.50;;;;;;;8.33;59.28;99184.66;4317671;33;33391;-78
2021/12/19 09:42:52;;;;;;;12.23;7.03;;;;;;;7.82;60.77;99203.31;4318367;33;32493;-77
2021/12/19 09:45:20;;;;;;;10.20;6.70;;;;;;;8.13;59.33;99191.97;4331758;33;33873;-78
2021/12/19 09:47:48;;;;;;;12.88;7.68;;;;;;;7.71;60.84;99207.31;4331470;33;34200;-79
2021/12/19 09:50:16;;;;;;;11.90;6.80;;;;;;;7.50;61.70;99202.47;4318272;33;34460;-78
2021/12/19 09:52:45;;;;;;;10.05;6.43;;;;;;;8.23;59.44;99190.50;4331899;33;33848;-78
2021/12/19 09:55:18;;;;;;;12.85;7.53;;;;;;;8.49;58.67;99166.12;4318410;33;34881;-78
2021/12/19 09:57:46;;;;;;;12.40;6.53;;;;;;;9.24;57.12;99164.09;4331386;33;35233;-78
2021/12/19 10:00:14;;;;;;;8.68;5.37;;;;;;;8.56;58.69;99155.91;4318203;33;33541;-78
2021/12/19 10:02:43;;;;;;;8.23;5.15;;;;;;;8.53;58.15;99151.56;4331729;33;33428;-79
2021/12/19 10:05:17;;;;;;;11.35;5.95;;;;;;;8.46;58.05;99150.56;4318179;33;35154;-78
2021/12/19 10:07:46;;;;;;;10.65;5.75;;;;;;;8.65;58.37;99141.47;4318228;33;35216;-78
2021/12/19 10:10:24;;;;;;;9.75;6.20;;;;;;;9.27;55.53;99148.66;4318506;33;33872;-78
2021/12/19 10:12:57;;;;;;;11.23;6.20;;;;;;;8.65;57.48;99133.72;4319385;33;33165;-79
2021/12/19 10:15:38;;;;;;;10.35;6.03;;;;;;;8.76;56.79;99123.59;4331220;33;34198;-78
2021/12/19 10:18:12;;;;;;;12.77;9.20;;;;;;;9.03;56.01;99138.75;4330669;33;34995;-78
2021/12/19 10:20:56;;;;;;;11.70;7.10;;;;;;;8.60;57.12;99132.75;4331368;33;34987;-78
2021/12/19 10:23:26;;;;;;;10.93;7.10;;;;;;;8.61;57.06;99146.56;4331493;33;33864;-80
2021/12/19 10:25:58;;;;;;;10.75;6.93;;;;;;;8.97;56.43;99128.28;4331529;33;34815;-77
2021/12/19 10:28:27;;;;;;;11.05;7.18;;;;;;;9.36;54.86;99112.59;4331071;33;33974;-78
2021/12/19 10:30:57;;;;;;;10.82;5.78;;;;;;;10.30;53.18;99126.97;4318313;33;33263;-78
2021/12/19 10:33:31;;;;;;;9.50;5.80;;;;;;;10.04;53.17;99103.25;4331389;33;33725;-81
2021/12/19 10:36:01;;;;;;;9.57;5.85;;;;;;;8.76;56.62;99119.28;4331244;33;34230;-78
2021/12/19 10:38:35;;;;;;;14.70;10.02;;;;;;;8.78;56.58;99099.50;4331229;33;34327;-78
2021/12/19 10:41:21;;;;;;;10.75;6.47;;;;;;;9.31;55.14;99095.25;4318086;33;34548;-78
2021/12/19 10:44:07;;;;;;;14.05;8.30;;;;;;;9.33;55.57;99098.75;4331473;33;33947;-78
2021/12/19 10:46:40;;;;;;;15.63;11.02;;;;;;;9.34;55.26;99084.97;4319094;33;33913;-78
2021/12/19 10:49:32;;;;;;;11.30;7.10;;;;;;;9.29;55.39;99094.37;4318067;33;34355;-78
2021/12/19 10:52:01;;;;;;;12.70;7.97;;;;;;;9.41;54.52;99091.97;4330631;33;33838;-76
2021/12/19 10:54:29;;;;;;;11.20;6.87;;;;;;;9.59;54.37;99091.41;4331119;33;33959;-80
2021/12/19 10:57:11;;;;;;;10.30;6.60;;;;;;;9.34;54.72;99098.75;4331245;33;34315;-79
2021/12/19 10:59:43;;;;;;;11.68;6.90;;;;;;;9.07;55.55;99118.97;4317715;33;35065;-78
2021/12/19 11:02:10;;;;;;;9.55;6.05;;;;;;;9.07;55.49;99114.69;4317499;33;33781;-78
2021/12/19 11:04:38;;;;;;;12.00;7.55;;;;;;;8.81;55.46;99101.28;4317855;33;34767;-78
2021/12/19 11:07:06;;;;;;;12.52;7.57;;;;;;;9.12;55.23;99104.41;4331369;33;33875;-78
2021/12/19 11:09:37;;;;;;;9.35;6.18;;;;;;;9.02;55.74;99099.09;4331211;33;34211;-78
2021/12/19 11:12:10;;;;;;;12.05;6.85;;;;;;;8.79;55.25;99079.72;4331224;33;33791;-78
2021/12/19 11:14:47;;;;;;;10.95;6.20;;;;;;;8.97;55.31;99077.44;4330406;33;34709;-78
2021/12/19 11:17:20;;;;;;;10.70;6.90;;;;;;;9.12;55.04;99079.41;4331032;33;34293;-77
2021/12/19 11:19:49;;;;;;;11.43;7.30;;;;;;;8.07;57.58;99078.25;4331062;33;34191;-84
2021/12/19 11:22:25;;;;;;;11.07;6.45;;;;;;;8.60;56.36;99073.31;4329946;33;33746;-78
2021/12/19 11:24:59;;;;;;;13.82;7.05;;;;;;;8.34;57.37;99082.25;4331094;33;34529;-81
2021/12/19 11:27:28;;;;;;;12.40;8.00;;;;;;;8.39;56.74;99091.84;4330818;33;34917;-77
2021/12/19 11:29:57;;;;;;;11.20;6.57;;;;;;;8.26;57.70;99098.44;4307851;33;33877;-83
2021/12/19 11:32:32;;;;;;;10.80;7.43;;;;;;;9.06;55.32;99117.25;4317757;33;34618;-75
2021/12/19 11:35:08;;;;;;;12.50;7.22;;;;;;;8.89;55.53;99119.50;4318151;33;33747;-78
2021/12/19 11:37:52;;;;;;;13.05;6.97;;;;;;;8.76;55.58;99114.12;4317949;33;33796;-75
2021/12/19 11:40:20;;;;;;;10.60;6.72;;;;;;;8.90;55.22;99105.72;4317707;33;34290;-78
2021/12/19 11:42:49;;;;;;;11.75;7.12;;;;;;;9.07;54.86;99106.06;4317697;33;33750;-78
2021/12/19 11:45:38;;;;;;;11.75;7.50;;;;;;;8.92;55.23;99117.00;4328031;33;34315;-75
2021/12/19 11:48:34;;;;;;;10.95;8.00;;;;;;;10.17;51.74;99111.22;4320644;33;34608;-76
2021/12/19 11:51:08;;;;;;;10.40;6.37;;;;;;;9.65;52.78;99114.78;4308707;33;34270;-77
2021/12/19 11:53:39;;;;;;;10.75;6.68;;;;;;;8.87;55.04;99118.63;4330945;33;33875;-80
2021/12/19 11:56:14;;;;;;;9.55;5.90;;;;;;;10.28;51.44;99113.12;4330778;33;34112;-82
2021/12/19 11:58:45;;;;;;;11.68;6.90;;;;;;;10.46;50.38;99108.19;4331093;33;34165;-77
2021/12/19 12:01:16;;;;;;;11.50;6.78;;;;;;;10.04;52.00;99114.50;4330512;33;33963;-79
2021/12/19 12:03:51;;;;;;;17.62;12.93;;;;;;;10.35;51.03;99109.78;4311120;33;33112;-76
2021/12/19 12:06:20;;;;;;;10.63;7.87;;;;;;;10.08;51.45;99102.47;4316275;33;34836;-77
2021/12/19 12:09:07;;;;;;;11.25;6.20;;;;;;;9.45;53.03;99101.53;4319368;33;33751;-80
2021/12/19 12:11:37;;;;;;;10.93;6.90;;;;;;;9.89;51.63;99111.69;4330846;33;33856;-78
2021/12/19 12:14:27;;;;;;;11.18;6.50;;;;;;;9.84;51.77;99097.81;4330904;33;33863;-78
2021/12/19 12:17:01;;;;;;;10.13;6.72;;;;;;;8.89;54.10;99098.84;4330409;33;33955;-78
2021/12/19 12:19:40;;;;;;;10.65;7.03;;;;;;;8.67;55.02;99102.72;4330671;33;32275;-78
2021/12/19 12:22:35;;;;;;;10.45;6.20;;;;;;;8.74;54.99;99095.09;4330835;33;34750;-79
2021/12/19 12:25:16;;;;;;;12.55;6.65;;;;;;;9.37;52.93;99090.19;4330803;33;33537;-77
2021/12/19 12:27:54;;;;;;;12.10;6.62;;;;;;;8.20;55.80;99089.69;4330578;33;33825;-78
2021/12/19 12:30:30;;;;;;;10.48;6.57;;;;;;;8.02;56.59;99082.44;4330511;33;35136;-79
2021/12/19 12:33:01;;;;;;;11.82;7.07;;;;;;;8.47;55.46;99089.41;4317270;33;34032;-77
2021/12/19 12:35:31;;;;;;;11.40;6.75;;;;;;;8.59;55.21;99094.81;4317503;33;34423;-78
2021/12/19 12:38:00;;;;;;;9.88;6.30;;;;;;;8.31;56.03;99087.34;4317447;33;33761;-79
2021/12/19 12:40:31;;;;;;;10.77;6.72;;;;;;;9.06;54.05;99086.22;4329927;33;35206;-81